Résultats

Cross de la Nativititée : C05 : 3em Filles. Édition 2017.

1.2 Km
28/04/2017 à 08:00:00 - ()
83 arrivant(e)s.


 
Les autres classements de cet évènement




Place▲ Temps Dossard Nom Prenom Categ #Categ Sexe #Sexe Club Vit Moy Diplôme Partager
1 00:05:14 576 COURSON ELEA MIF 1 F 1 3 4 13,76
2 00:05:14 627 SANNA AURELIE MIF 2 F 2 3 5 13,76
3 00:05:17 501 NICOLLE ILLONA MIF 3 F 3 3 1 13,63
4 00:05:22 673 N:Anonyme 673 P:Anonyme 673 MIF 4 F 4 3 7 13,42
5 00:05:22 666 APLINCOURT MARGAUX MIF 5 F 5 3 7 13,42
6 00:05:26 610 DAVID ANNE-LYSE MIF 6 F 6 3 5 13,25
7 00:05:37 677 DURAND-DAGICOUR ORIANNE MIF 7 F 7 3 7 12,82
8 00:05:37 540 TOUTIN HANNAH MIF 8 F 8 3 2 12,82
9 00:05:40 696 SUZOR ANAELLE MIF 9 F 9 3 7 12,71
10 00:05:42 638 CATAU CLARA MIF 10 F 10 3 6 12,63
11 00:05:42 561 GUICHARD JADE MIF 11 F 11 3 3 12,63
12 00:05:45 545 BOONEKAMP MATHILDE MIF 12 F 12 3 3 12,52
13 00:05:55 639 CHIARIGLIONE MATHILDE MIF 13 F 13 3 6 12,17
14 00:05:58 635 BENIER ALEXANDRA MIF 14 F 14 3 6 12,07
15 00:05:59 488 COSTANTINO LOLA CAF 1 F 15 3 1 12,03
16 00:05:59 536 TELLIER SWANN MIF 15 F 16 3 2 12,03
17 00:06:00 602 ANDRE-GALLIS LILA MIF 16 F 17 3 5 12,00
18 00:06:01 623 MOCKERS CLARA MIF 17 F 18 3 5 11,97
19 00:06:03 514 N:Anonyme 514 P:Anonyme 514 MIF 18 F 19 3 2 11,90
20 00:06:04 502 PAYAN LISA MIF 19 F 20 3 1 11,87
21 00:06:05 544 BENCHENAFI ANISSA MIF 20 F 21 3 3 11,84
22 00:06:12 534 ROUZAUD PAULINE MIF 21 F 22 3 2 11,61
23 00:06:14 519 DRIEUX MADISON MIF 22 F 23 3 2 11,55
24 00:06:14 595 TARNAUD MARY-JANE MIF 23 F 24 3 4 11,55
25 00:06:15 487 CHENEAU LAURE MIF 24 F 25 3 1 11,52
26 00:06:16 533 RABATTU JUSTINE CAF 2 F 26 3 2 11,49
27 00:06:16 653 MAROTTE COLOMBE MIF 25 F 27 3 6 11,49
28 00:06:16 685 MAGNAN MATHILDE CAF 3 F 28 3 7 11,49
29 00:06:17 625 PIOT-D'HALLUIN VICTORIA MIF 26 F 29 3 5 11,46
30 00:06:22 682 HENNO HORTENSE MIF 27 F 30 3 7 11,31
31 00:06:22 535 SANTIAGO CHLOE MIF 28 F 31 3 2 11,31
32 00:06:28 614 HERLAND DORIANE MIF 29 F 32 3 5 11,13
33 00:06:28 482 BENISTANT INES MIF 30 F 33 3 1 11,13
34 00:06:29 649 LE-MOAL AMANDINE MIF 31 F 34 3 6 11,11
35 00:06:30 497 MARIN YSALINE MIF 32 F 35 3 1 11,08
36 00:06:32 600 WERNER CLARA MIF 33 F 36 3 4 11,02
37 00:06:34 505 TOUTIN HELOISE MIF 34 F 37 3 1 10,96
38 00:06:34 583 KERGUEN CHLOE CAF 4 F 38 3 4 10,96
39 00:06:39 542 VAESKEN JADE CAF 5 F 39 3 2 10,83
40 00:06:43 537 THAON PAULINE MIF 35 F 40 3 2 10,72
41 00:06:44 585 MENDES SARAH MIF 36 F 41 3 4 10,69
42 00:06:44 581 GORGODIAN SUZANNE MIF 37 F 42 3 4 10,69
43 00:06:45 549 BOURDAREL ERINE MIF 38 F 43 3 3 10,67
44 00:06:49 615 JACOULET ANOUK MIF 39 F 44 3 5 10,56
45 00:06:50 567 RAPALLINI JADE MIF 40 F 45 3 3 10,54
46 00:06:50 609 DARMON SOLENE MIF 41 F 46 3 5 10,54
47 00:06:50 622 MEYNIEUX BLANCHE MIF 42 F 47 3 5 10,54
48 00:06:52 611 DECOMMER EUGENIE MIF 43 F 48 3 5 10,49
49 00:06:58 527 MESLIERE LOU MIF 44 F 49 3 2 10,33
50 00:06:59 637 BRISSET LUCILE MIF 45 F 50 3 6 10,31
51 00:07:00 655 MONMAGNON VICTORIA MIF 46 F 51 3 6 10,29
52 00:07:01 620 MARIDAT JEANNE MIF 47 F 52 3 5 10,26
53 00:07:01 688 MILON JULIETTE MIF 48 F 53 3 7 10,26
54 00:07:04 683 LEMAIRE LANNA MIF 49 F 54 3 7 10,19
55 00:07:04 586 NASSI AMELIE MIF 50 F 55 3 4 10,19
56 00:07:04 697 TANKOSIC EVA MIF 51 F 56 3 7 10,19
57 00:07:07 661 RODRIGUES JULIETTE MIF 52 F 57 3 6 10,12
58 00:07:14 507 VERA ELODIE MIF 53 F 58 3 1 9,95
59 00:07:22 660 RABADEUX ELENA MIF 54 F 59 3 6 9,77
60 00:07:24 499 MIMUN MAILYS MIF 55 F 60 3 1 9,73
61 00:07:28 483 BENISTANT VICTORIA MIF 56 F 61 3 1 9,64
62 00:07:32 674 CHAVRIER INES MIF 57 F 62 3 7 9,56
63 00:07:32 668 BERGMAN ETHEL MIF 58 F 63 3 7 9,56
64 00:07:39 480 ANTARAMIAN VICTOIRE MIF 59 F 64 3 1 9,41
65 00:07:42 579 GENTIL LAETITIA MIF 60 F 65 3 4 9,35
66 00:07:43 587 NOEL-WEIL SARAH MIF 61 F 66 3 4 9,33
67 00:07:44 573 ARNAUD LAURIE MIF 62 F 67 3 4 9,31
68 00:07:52 594 SAVOSTIANOFF ZOE MIF 63 F 68 3 4 9,15
69 00:07:59 511 WAGNON EMMA MIF 64 F 69 3 1 9,02
70 00:08:09 658 NGUYEN SUZANNE MIF 65 F 70 3 6 8,83
71 00:08:09 636 BOURCIER FLORIE MIF 66 F 71 3 6 8,83
72 00:08:13 678 FERRIER MARIE MIF 67 F 72 3 7 8,76
73 00:08:22 565 MARTIN AMBRE MIF 68 F 73 3 3 8,61
74 00:08:27 690 RAMEL BLANCHE MIF 69 F 74 3 7 8,52
75 00:08:28 676 DAUMAS CAROLINE MIF 70 F 75 3 7 8,50
76 00:08:45 521 FAURE MAGALI MIF 71 F 76 3 2 8,23
77 00:10:17 693 SAUVAN LEONIE MIF 72 F 77 3 7 7,00
78 00:10:17 582 GUERRE CLARISSE MIF 73 F 78 3 4 7,00
79 00:10:17 580 GOMEZ ANNA MIF 74 F 79 3 4 7,00
80 00:10:18 591 ROUSSEAU-PONTHIEUX EMMA MIF 75 F 80 3 4 6,99
81 00:10:18 578 DEVALLOIS ELISA MIF 76 F 81 3 4 6,99
82 00:10:19 647 GUERRE MARINE MIF 77 F 82 3 6 6,98
83 00:10:51 562 HAMMOU YASMINE CAF 6 F 83 3 3 6,64